createdAt,value
2023-05-09T00:01:21.062Z,5.99
2023-05-09T00:05:30.131Z,5.93
2023-05-09T00:09:38.023Z,5.88
2023-05-09T00:13:45.337Z,5.88
2023-05-09T00:17:53.790Z,5.87
2023-05-09T00:22:01.849Z,5.84
2023-05-09T00:26:11.235Z,5.81
2023-05-09T00:30:23.885Z,5.76
2023-05-09T00:34:31.273Z,5.70
2023-05-09T00:38:38.722Z,5.63
2023-05-09T00:42:46.766Z,5.57
2023-05-09T00:46:54.559Z,5.55
2023-05-09T00:51:02.650Z,5.55
2023-05-09T00:55:11.859Z,5.53
2023-05-09T00:59:20.323Z,5.51
2023-05-09T01:03:27.963Z,5.48
2023-05-09T01:07:43.796Z,5.41
2023-05-09T01:11:57.396Z,5.35
2023-05-09T01:16:10.974Z,5.32
2023-05-09T01:20:25.191Z,5.28
2023-05-09T01:24:58.275Z,5.26
2023-05-09T01:29:31.894Z,5.26
2023-05-09T01:33:41.836Z,5.26
2023-05-09T01:37:52.338Z,5.26
2023-05-09T01:42:02.582Z,5.23
2023-05-09T01:46:11.457Z,5.19
2023-05-09T01:50:20.844Z,5.14
2023-05-09T01:54:28.653Z,5.07
2023-05-09T01:58:38.401Z,5.03
2023-05-09T02:02:46.887Z,5.04
2023-05-09T02:06:57.065Z,5.06
2023-05-09T02:11:04.745Z,5.06
2023-05-09T02:15:15.016Z,5.01
2023-05-09T02:19:23.387Z,4.94
2023-05-09T02:23:30.948Z,4.85
2023-05-09T02:27:39.133Z,4.76
2023-05-09T02:31:49.319Z,4.75
2023-05-09T02:35:57.450Z,4.79
2023-05-09T02:40:05.799Z,4.77
2023-05-09T02:44:14.544Z,4.73
2023-05-09T02:48:22.792Z,4.68
2023-05-09T02:52:31.630Z,4.64
2023-05-09T02:56:39.857Z,4.54
2023-05-09T03:00:47.657Z,4.46
2023-05-09T03:04:56.718Z,4.46
2023-05-09T03:09:04.631Z,4.50
2023-05-09T03:13:13.225Z,4.54
2023-05-09T03:17:23.449Z,4.54
2023-05-09T03:21:32.107Z,4.50
2023-05-09T03:25:39.613Z,4.44
2023-05-09T03:29:47.717Z,4.40
2023-05-09T03:33:55.410Z,4.40
2023-05-09T03:38:03.143Z,4.40
2023-05-09T03:42:12.328Z,4.38
2023-05-09T03:46:20.208Z,4.36
2023-05-09T03:50:28.576Z,4.37
2023-05-09T03:54:36.686Z,4.36
2023-05-09T03:58:44.691Z,4.30
2023-05-09T04:02:52.739Z,4.32
2023-05-09T04:07:00.527Z,4.35
2023-05-09T04:11:08.682Z,4.39
2023-05-09T04:15:16.990Z,4.41
2023-05-09T04:19:26.401Z,4.43
2023-05-09T04:23:34.301Z,4.46
2023-05-09T04:27:41.880Z,4.48
2023-05-09T04:31:50.093Z,4.50
2023-05-09T04:35:58.626Z,4.57
2023-05-09T04:40:09.196Z,4.65
2023-05-09T04:44:17.756Z,4.76
2023-05-09T04:48:25.310Z,4.87
2023-05-09T04:52:33.665Z,4.97
2023-05-09T04:56:41.100Z,5.07
2023-05-09T05:00:51.357Z,5.16
2023-05-09T05:05:10.808Z,5.26
2023-05-09T05:09:20.152Z,5.40
2023-05-09T05:13:27.960Z,5.63
2023-05-09T05:17:37.008Z,5.92
2023-05-09T05:21:44.595Z,6.26
2023-05-09T05:25:52.657Z,6.59
2023-05-09T05:30:02.355Z,6.85
2023-05-09T05:34:10.307Z,7.07
2023-05-09T05:38:17.979Z,7.24
2023-05-09T05:42:25.907Z,7.43
2023-05-09T05:46:34.588Z,7.62
2023-05-09T05:50:42.558Z,7.82
2023-05-09T05:54:50.715Z,8.12
2023-05-09T05:58:58.611Z,8.47
2023-05-09T06:03:06.917Z,8.78
2023-05-09T06:07:16.035Z,9.08
2023-05-09T06:11:23.640Z,9.30
2023-05-09T06:15:32.038Z,9.44
2023-05-09T06:19:40.497Z,9.59
2023-05-09T06:24:05.891Z,9.76
2023-05-09T06:28:17.072Z,9.90
2023-05-09T06:32:25.153Z,10.05
2023-05-09T06:36:33.611Z,10.26
2023-05-09T06:40:42.197Z,10.48
2023-05-09T06:44:50.201Z,10.70
2023-05-09T06:48:59.042Z,10.82
2023-05-09T06:53:06.788Z,11.01
2023-05-09T06:57:16.247Z,11.28
2023-05-09T07:01:24.129Z,11.55
2023-05-09T07:05:32.012Z,11.70
2023-05-09T07:09:39.973Z,11.80
2023-05-09T07:13:47.509Z,11.88
2023-05-09T07:17:56.095Z,11.97
2023-05-09T07:22:03.806Z,12.08
2023-05-09T07:26:12.186Z,12.17
2023-05-09T07:30:20.155Z,12.17
2023-05-09T07:34:27.823Z,12.19
2023-05-09T07:38:37.531Z,12.29
2023-05-09T07:42:50.007Z,12.46
2023-05-09T07:46:59.431Z,12.64
2023-05-09T07:51:07.139Z,12.83
2023-05-09T07:55:14.920Z,12.89
2023-05-09T07:59:23.522Z,12.98
2023-05-09T08:03:32.424Z,13.05
2023-05-09T08:07:40.726Z,13.16
2023-05-09T08:11:48.507Z,13.21
2023-05-09T08:15:56.875Z,13.33
2023-05-09T08:20:06.241Z,13.40
2023-05-09T08:24:14.843Z,13.53
2023-05-09T08:28:24.297Z,13.63
2023-05-09T08:32:32.527Z,13.69
2023-05-09T08:36:41.473Z,13.73
2023-05-09T08:40:49.700Z,13.83
2023-05-09T08:44:57.762Z,13.94
2023-05-09T08:49:08.352Z,14.02
2023-05-09T08:53:16.902Z,14.11
2023-05-09T08:57:25.164Z,14.18
2023-05-09T09:01:33.532Z,14.32
2023-05-09T09:05:43.706Z,14.42
2023-05-09T09:09:52.180Z,14.52
2023-05-09T09:14:04.118Z,14.65
2023-05-09T09:18:13.721Z,14.80
2023-05-09T09:22:22.970Z,14.83
2023-05-09T09:26:32.146Z,14.88
2023-05-09T09:30:47.700Z,14.93
2023-05-09T09:35:08.195Z,15.02
2023-05-09T09:39:16.605Z,15.02
2023-05-09T09:43:31.806Z,15.04
2023-05-09T09:47:40.021Z,15.21
2023-05-09T09:51:48.400Z,15.28
2023-05-09T09:55:56.076Z,15.24
2023-05-09T10:00:06.453Z,15.33
2023-05-09T10:04:19.112Z,15.47
2023-05-09T10:08:28.744Z,15.62
2023-05-09T10:12:40.021Z,15.73
2023-05-09T10:16:48.138Z,15.80
2023-05-09T10:20:57.307Z,15.96
2023-05-09T10:25:13.274Z,16.10
2023-05-09T10:29:23.163Z,16.21
2023-05-09T10:33:39.680Z,16.34
2023-05-09T10:37:48.000Z,16.26
2023-05-09T10:41:55.386Z,16.28
2023-05-09T10:46:04.098Z,16.35
2023-05-09T10:50:14.183Z,16.42
2023-05-09T10:54:32.594Z,16.54
2023-05-09T10:58:42.183Z,16.56
2023-05-09T11:03:09.305Z,16.61
2023-05-09T11:07:30.566Z,16.72
2023-05-09T11:11:54.352Z,16.77
2023-05-09T11:16:16.249Z,16.84
2023-05-09T11:20:31.344Z,16.95
2023-05-09T11:24:41.594Z,17.09
2023-05-09T11:28:56.904Z,17.21
2023-05-09T11:33:06.847Z,17.27
2023-05-09T11:37:16.120Z,17.38
2023-05-09T11:41:23.989Z,17.57
2023-05-09T11:45:34.002Z,17.76
2023-05-09T11:49:42.022Z,17.90
2023-05-09T11:53:54.292Z,17.98
2023-05-09T11:58:02.670Z,18.09
2023-05-09T12:02:10.594Z,18.15
2023-05-09T12:06:23.018Z,18.14
2023-05-09T12:10:30.519Z,18.09
2023-05-09T12:14:39.367Z,18.26
2023-05-09T12:18:51.906Z,18.37
2023-05-09T12:22:59.701Z,18.49
2023-05-09T12:27:08.463Z,18.54
2023-05-09T12:31:17.973Z,18.54
2023-05-09T12:35:26.614Z,18.57
2023-05-09T12:39:34.033Z,18.60
2023-05-09T12:43:44.053Z,18.76
2023-05-09T12:47:59.101Z,18.92
2023-05-09T12:52:09.748Z,19.00
2023-05-09T12:56:19.092Z,18.96
2023-05-09T13:00:27.603Z,19.00
2023-05-09T13:04:39.305Z,19.11
2023-05-09T13:08:58.644Z,19.11
2023-05-09T13:13:07.560Z,19.03
2023-05-09T13:17:16.032Z,19.00
2023-05-09T13:21:27.006Z,19.02
2023-05-09T13:25:34.461Z,19.05
2023-05-09T13:29:42.983Z,19.04
2023-05-09T13:33:51.873Z,19.00
2023-05-09T13:38:01.268Z,18.92
2023-05-09T13:42:09.310Z,18.88
2023-05-09T13:46:18.066Z,18.93
2023-05-09T13:50:27.639Z,18.98
2023-05-09T13:54:35.598Z,19.00
2023-05-09T13:58:43.628Z,18.97
2023-05-09T14:02:51.470Z,18.99
2023-05-09T14:07:00.208Z,19.03
2023-05-09T14:11:09.570Z,19.21
2023-05-09T14:15:17.674Z,19.25
2023-05-09T14:19:27.270Z,19.40
2023-05-09T14:23:34.649Z,19.46
2023-05-09T14:27:42.368Z,19.41
2023-05-09T14:31:49.953Z,19.31
2023-05-09T14:36:01.432Z,19.27
2023-05-09T14:40:11.942Z,19.30
2023-05-09T14:44:19.659Z,19.31
2023-05-09T14:48:27.757Z,19.33
2023-05-09T14:52:37.391Z,19.38
2023-05-09T14:56:45.126Z,19.38
2023-05-09T15:00:53.548Z,19.35
2023-05-09T15:05:01.652Z,19.31
2023-05-09T15:09:10.353Z,19.20
2023-05-09T15:13:19.149Z,19.11
2023-05-09T15:17:27.875Z,19.08
2023-05-09T15:21:35.877Z,19.03
2023-05-09T15:25:46.399Z,18.98
2023-05-09T15:29:55.070Z,18.93
2023-05-09T15:34:03.065Z,18.89
2023-05-09T15:38:12.243Z,18.78
2023-05-09T15:42:21.069Z,18.71
2023-05-09T15:46:28.987Z,18.64
2023-05-09T15:50:36.768Z,18.66
2023-05-09T15:54:45.396Z,18.64
2023-05-09T15:58:53.456Z,18.54
2023-05-09T16:03:05.050Z,18.43
2023-05-09T16:07:13.850Z,18.35
2023-05-09T16:11:22.226Z,18.34
2023-05-09T16:15:30.076Z,18.33
2023-05-09T16:19:38.269Z,18.36
2023-05-09T16:23:48.463Z,18.30
2023-05-09T16:27:58.114Z,18.15
2023-05-09T16:32:08.025Z,18.05
2023-05-09T16:36:17.169Z,17.95
2023-05-09T16:40:25.404Z,17.85
2023-05-09T16:44:33.519Z,17.80
2023-05-09T16:48:41.070Z,17.78
2023-05-09T16:52:50.228Z,17.73
2023-05-09T16:56:57.975Z,17.65
2023-05-09T17:01:06.775Z,17.58
2023-05-09T17:05:14.525Z,17.47
2023-05-09T17:09:22.858Z,17.39
2023-05-09T17:13:30.816Z,17.35
2023-05-09T17:17:39.231Z,17.30
2023-05-09T17:21:47.143Z,17.23
2023-05-09T17:25:55.385Z,17.13
2023-05-09T17:30:03.397Z,17.03
2023-05-09T17:34:11.814Z,16.88
2023-05-09T17:38:19.794Z,16.73
2023-05-09T17:42:27.591Z,16.58
2023-05-09T17:46:38.452Z,16.44
2023-05-09T17:50:47.697Z,16.28
2023-05-09T17:54:55.844Z,16.14
2023-05-09T17:59:04.320Z,15.99
2023-05-09T18:03:13.094Z,15.85
2023-05-09T18:07:21.238Z,15.71
2023-05-09T18:11:29.989Z,15.57
2023-05-09T18:15:38.592Z,15.42
2023-05-09T18:19:46.798Z,15.25
2023-05-09T18:23:55.057Z,15.11
2023-05-09T18:28:03.020Z,15.00
2023-05-09T18:32:15.983Z,14.89
2023-05-09T18:36:23.689Z,14.76
2023-05-09T18:40:32.713Z,14.63
2023-05-09T18:44:40.652Z,14.55
2023-05-09T18:48:51.524Z,14.41
2023-05-09T18:53:00.185Z,14.31
2023-05-09T18:57:11.904Z,14.20
2023-05-09T19:01:19.728Z,14.08
2023-05-09T19:05:29.121Z,13.95
2023-05-09T19:09:37.598Z,13.81
2023-05-09T19:13:49.766Z,13.64
2023-05-09T19:17:57.712Z,13.51
2023-05-09T19:22:07.749Z,13.39
2023-05-09T19:26:16.253Z,13.27
2023-05-09T19:30:25.062Z,13.14
2023-05-09T19:34:33.695Z,13.01
2023-05-09T19:38:41.510Z,12.90
2023-05-09T19:42:49.789Z,12.79
2023-05-09T19:47:00.949Z,12.71
2023-05-09T19:51:12.420Z,12.63
2023-05-09T19:55:20.520Z,12.55
2023-05-09T19:59:28.666Z,12.48
2023-05-09T20:03:38.943Z,12.41
2023-05-09T20:07:46.908Z,12.33
2023-05-09T20:11:56.253Z,12.26
2023-05-09T20:16:04.562Z,12.18
2023-05-09T20:20:14.433Z,12.11
2023-05-09T20:24:22.458Z,12.05
2023-05-09T20:28:30.731Z,12.00
2023-05-09T20:32:38.445Z,11.95
2023-05-09T20:36:52.054Z,11.88
2023-05-09T20:41:00.196Z,11.83
2023-05-09T20:45:09.392Z,11.75
2023-05-09T20:49:17.264Z,11.69
2023-05-09T20:53:27.521Z,11.61
2023-05-09T20:57:36.425Z,11.53
2023-05-09T21:01:44.629Z,11.44
2023-05-09T21:05:52.686Z,11.35
2023-05-09T21:10:02.316Z,11.26
2023-05-09T21:14:11.996Z,11.16
2023-05-09T21:18:20.523Z,11.08
2023-05-09T21:22:28.618Z,11.02
2023-05-09T21:26:36.805Z,10.96
2023-05-09T21:30:44.719Z,10.90
2023-05-09T21:34:52.676Z,10.83
2023-05-09T21:39:07.510Z,10.75
2023-05-09T21:43:18.361Z,10.67
2023-05-09T21:47:26.790Z,10.59
2023-05-09T21:51:35.405Z,10.52
2023-05-09T21:55:44.582Z,10.43
2023-05-09T21:59:53.533Z,10.35
2023-05-09T22:04:02.751Z,10.26
2023-05-09T22:08:10.907Z,10.17
2023-05-09T22:12:18.716Z,10.10
2023-05-09T22:16:27.639Z,10.01
2023-05-09T22:20:35.453Z,9.94
2023-05-09T22:24:45.215Z,9.89
2023-05-09T22:28:53.179Z,9.82
2023-05-09T22:33:03.176Z,9.73
2023-05-09T22:37:10.860Z,9.66
2023-05-09T22:41:18.520Z,9.59
2023-05-09T22:45:27.093Z,9.52
2023-05-09T22:49:35.618Z,9.45
2023-05-09T22:53:43.360Z,9.37
2023-05-09T22:57:51.267Z,9.30
2023-05-09T23:01:59.964Z,9.23
2023-05-09T23:06:08.700Z,9.16
2023-05-09T23:10:17.110Z,9.09
2023-05-09T23:14:25.336Z,9.03
2023-05-09T23:18:32.948Z,8.96
2023-05-09T23:22:40.687Z,8.90
2023-05-09T23:26:48.463Z,8.85
2023-05-09T23:30:56.566Z,8.78
2023-05-09T23:35:04.810Z,8.75
2023-05-09T23:39:12.825Z,8.76
2023-05-09T23:43:20.308Z,8.73
2023-05-09T23:47:27.751Z,8.66
2023-05-09T23:51:35.438Z,8.60
2023-05-09T23:55:43.428Z,8.53
2023-05-09T23:59:51.376Z,8.42
